Weather observations for the past three days for
Abilene, Dyess Air Force Base
Imperial (Metric)
Date Time (cdt) Wind (mph) Vis. (mi.) Weather Sky Cond. Temperature (ºF) Relative Humidity Wind Chill (°F) Heat Index (°F) Pressure Precipitation (in)
Air Dwpt 6 hour altimeter (in) sea level (mb) 1 hr 3 hr 6 hr
Max. Min.
10 13:55 SE 7 8.00 Partly Cloudy SCT065 88 66 48% 90 29.94 1010.9
10 12:52 Calm 8.00 Fair CLR 89.1 66 89.1 72 47% 92 29.95 1011.3
10 11:52 Vrbl 7 8.00 Fair CLR 86 66 51% 88 29.96 1011.6
10 10:55 SE 14 G 22 8.00 Fair CLR 81 66.9 62% 83 29.93 1010.7
10 09:55 SE 13 7.00 Fair CLR 79 66.9 67% 81 29.94 1011.2
10 08:55 SE 9 7.00 Fair CLR 75 64.9 71% 77 29.93 1010.9
10 07:55 S 8 10.00 Partly Cloudy SCT060 73.9 64 71% 29.9 1010.3
10 03:55 S 22 G 25 10.00 Fair and Breezy CLR 75.7 59.9 58% 78 29.74 1004.1
10 02:55 S 17 10.00 Fair CLR 76.5 60.6 58% 78 29.74 1004.1
10 01:55 S 21 G 28 10.00 Fair and Breezy CLR 77.4 59.9 55% 79 29.75 1004.4
10 00:55 S 22 10.00 Fair and Breezy CLR 78.4 59.4 90.9 77.7 52% 80 29.75 1004.4
09 23:55 S 16 10.00 Fair CLR 78.3 58.6 51% 79 29.76 1004.9
09 22:55 S 16 10.00 Fair CLR 78.3 54.5 44% 79 29.76 1005.1
09 21:55 S 14 10.00 Fair CLR 80.1 52.9 39% 80 29.76 1005.2
09 20:55 S 13 10.00 Fair CLR 80.6 51.1 36% 80 29.74 1004.7
09 19:55 S 14 10.00 Fair CLR 87.4 50.4 28% 85 29.73 1004.3
09 18:55 S 16 10.00 Fair CLR 90.9 50.2 93.9 89.1 25% 88 29.74 1004.7
09 17:55 S 9 10.00 Fair CLR 93.2 48.6 22% 90 29.75 1004.9
09 16:55 SW 13 10.00 Fair CLR 93 48.6 22% 90 29.75 1004.9
09 15:55 S 8 10.00 Fair CLR 92.8 48.4 22% 89 29.77 1005.4
09 14:55 S 15 G 20 8.00 Fair CLR 92.3 55.4 29% 90 29.79 1006.1
09 13:55 S 8 10.00 A Few Clouds FEW210 90.7 54 29% 88 29.81 1006.8
09 12:55 S 9 10.00 Fair CLR 89.2 55.4 89.6 63 32% 87 29.83 1007.5
09 11:55 S 6 10.00 Fair CLR 86 57.4 38% 85 29.86 1008.6
09 10:55 SW 10 10.00 Fair CLR 82.2 61.2 49% 83 29.86 1008.8
09 09:55 SW 8 10.00 Fair CLR 78.4 63.3 60% 80 29.87 1009.1
09 08:55 W 13 10.00 Fair CLR 72.9 63.7 73% 29.87 1009.3
09 07:55 W 8 10.00 Fair CLR 66.4 62.6 88% 29.87 1009.4
09 06:55 S 5 10.00 Fair CLR 63.3 60.1 70.9 63 89% 29.85 1008.9
09 05:55 S 14 10.00 Fair CLR 63.7 59.4 86% 29.83 1008.1
09 04:55 S 8 10.00 Fair CLR 64.9 58.3 79% 29.83 1008.1
09 03:55 SE 10 10.00 Partly Cloudy SCT019 67.5 58.8 74% 29.85 1008.6
09 02:55 SE 12 10.00 Mostly Cloudy BKN010 BKN031 68.9 61.7 78% 29.86 1008.8
09 01:55 E 8 10.00 Partly Cloudy SCT018 70 65.5 86% 29.87 1009.1
09 00:55 Calm 10.00 Fair CLR 70 64.9 81 70 84% 29.83 1008.1
08 23:55 S 10 10.00 Fair CLR 71.2 65.5 82% 29.81 1007.5
08 22:55 S 12 10.00 Fair CLR 73 64.6 75% 29.79 1006.8
08 21:55 S 13 10.00 Fair CLR 74.5 63.1 68% 29.78 1006.6
08 20:55 S 10 10.00 Fair CLR 75.9 62.8 64% 78 29.77 1006.5
08 19:55 S 14 4.00 Fair with Haze CLR 79 61.9 56% 80 29.75 1005.6
08 18:55 S 13 5.00 A Few Clouds with Haze FEW042 80.6 61.9 83.1 76.5 53% 82 29.75 1005.5
08 17:55 S 10 G 20 10.00 Fair CLR 82 61 49% 83 29.74 1005.1
08 16:55 S 15 10.00 Fair CLR 82.6 60.3 47% 83 29.74 1005.1
08 15:55 SW 9 10.00 Mostly Cloudy BKN042 82.2 61.2 49% 83 29.78 1006.5
08 14:55 S 17 G 23 10.00 Mostly Cloudy SCT039 SCT046 BKN200 82.8 61.5 49% 83 29.79 1006.8
08 13:55 SW 13 10.00 Mostly Cloudy SCT039 BKN050 82.9 61.7 49% 84 29.81 1007.7
08 12:55 W 7 10.00 Fair CLR 76.8 60.8 76.8 60.4 58% 79 29.84 1008.9
08 11:55 Calm 10.00 Mostly Cloudy BKN018 70.2 58.3 66% 29.88 1010.4
08 10:55 S 10 10.00 Overcast OVC017 68 56.7 67% 29.91 1011.5
08 09:55 S 8 10.00 Overcast OVC015 65.7 55.2 69% 29.91 1011.5
08 08:55 S 12 10.00 Overcast BKN013 OVC022 61.7 52.9 73% 29.93 1012.2
08 07:55 S 10 10.00 Overcast OVC014 60.8 52.2 73% 29.93 1012.2
08 06:55 S 13 10.00 Overcast OVC014 60.8 51.3 60.8 58.3 71% 29.93 1012.1
08 05:55 S 9 10.00 Overcast BKN017 OVC044 60.3 51.6 73% 29.92 1011.7
08 04:55 S 7 10.00 Overcast OVC034 60.3 50.9 71% 29.93 1011.9
08 03:55 S 6 10.00 Overcast OVC031 60.6 50.4 69% 29.94 1012.3
08 02:55 Calm 10.00 Overcast OVC034 60.3 49.6 68% 29.95 1012.6
08 01:55 S 8 10.00 Fair CLR 58.8 50.5 74% 29.94 1012.4
08 00:55 S 10 10.00 A Few Clouds FEW090 59.4 50.4 70.3 59.4 72% 29.95 1012.9
07 23:55 S 6 10.00 Overcast OVC045 61.5 50 66% 29.98 1013.9
07 22:55 S 9 10.00 Mostly Cloudy SCT055 BKN070 61.5 50.5 67% 29.98 1014.2
07 21:55 S 12 10.00 Overcast OVC065 63.7 49.5 60% 29.97 1013.8
07 20:55 S 13 10.00 Overcast OVC075 66 46.8 50% 29.94 1012.8
07 19:55 S 13 10.00 Mostly Cloudy BKN085 67.8 46.2 46% 29.93 1012.6
07 18:55 S 13 10.00 Overcast OVC090 70.5 48.2 76.6 69.3 45% 29.95 1013.3
07 17:55 S 15 10.00 Mostly Cloudy BKN100 72.9 47.8 41% 29.95 1013.1
07 16:55 SE 7 10.00 A Few Clouds FEW110 75.2 46.4 36% 77 29.95 1013.0
07 15:55 SE 6 G 17 10.00 Fair CLR 75.4 45.9 35% 77 29.98 1014.0
07 14:55 SE 8 10.00 A Few Clouds FEW200 74.8 45.3 35% 30.01 1014.9
Date Time (cdt) Wind (mph) Vis. (mi.) Weather Sky Cond. Air Dwpt Max. Min. Relative Humidity Wind Chill (°F) Heat Index (°F) altimeter (in) sea level (mb) 1 hr 3 hr 6 hr
6 hour
Temperature (ºF) Pressure Precipitation (in)